N1589V KCIT-KMLI
Flight info
| Callsign | N1589V |
|---|---|
| Flight time | N/A |
| Altitude | VFR/030 |
| Route | |
| Aircraft | C172/L-DOV/C |
Departure
| Time | N/A |
|---|---|
| Airport | KCIT |
Arrival
| Time | 2026-05-05 22:28 |
|---|---|
| Airport | Quad City International Airport (KMLI) |
| Time | Latitude | Longitude | Altitude | Speed | Heading |
|---|---|---|---|---|---|
| 2026-05-05 21:46 | 41.88728 | -91.71549 | 866 ft | 0 kts | 183° |
| 2026-05-05 21:48 | 41.88721 | -91.71549 | 859 ft | 4 kts | 167° |
| 2026-05-05 21:48 | 41.88673 | -91.71502 | 860 ft | 13 kts | 164° |
| 2026-05-05 21:49 | 41.88621 | -91.71502 | 863 ft | 0 kts | 183° |
| 2026-05-05 21:49 | 41.88619 | -91.71502 | 863 ft | 2 kts | 186° |
| 2026-05-05 21:50 | 41.88586 | -91.71468 | 857 ft | 11 kts | 91° |
| 2026-05-05 21:50 | 41.88585 | -91.71341 | 863 ft | 16 kts | 91° |
| 2026-05-05 21:50 | 41.88582 | -91.71165 | 865 ft | 21 kts | 91° |
| 2026-05-05 21:50 | 41.88581 | -91.70943 | 867 ft | 26 kts | 89° |
| 2026-05-05 21:51 | 41.88577 | -91.70670 | 866 ft | 32 kts | 92° |
| 2026-05-05 21:51 | 41.88573 | -91.70404 | 867 ft | 21 kts | 90° |
| 2026-05-05 21:51 | 41.88572 | -91.70311 | 867 ft | 0 kts | 95° |
| 2026-05-05 21:53 | 41.88572 | -91.70277 | 868 ft | 9 kts | 91° |
| 2026-05-05 21:54 | 41.88570 | -91.70143 | 869 ft | 21 kts | 91° |
| 2026-05-05 21:54 | 41.88567 | -91.69918 | 870 ft | 26 kts | 89° |
| 2026-05-05 21:54 | 41.88529 | -91.69773 | 872 ft | 11 kts | 169° |
| 2026-05-05 21:54 | 41.88500 | -91.69773 | 871 ft | 0 kts | 180° |
| 2026-05-05 21:57 | 41.88488 | -91.69774 | 867 ft | 5 kts | 181° |
| 2026-05-05 21:57 | 41.88449 | -91.69774 | 870 ft | 11 kts | 199° |
| 2026-05-05 21:57 | 41.88430 | -91.69854 | 870 ft | 1 kts | 270° |
| 2026-05-05 21:58 | 41.88430 | -91.69869 | 870 ft | 13 kts | 270° |
| 2026-05-05 21:58 | 41.88435 | -91.70214 | 869 ft | 59 kts | 271° |
| 2026-05-05 21:58 | 41.88444 | -91.70842 | 970 ft | 74 kts | 273° |
| 2026-05-05 21:58 | 41.88447 | -91.71551 | 1166 ft | 79 kts | 275° |
| 2026-05-05 21:59 | 41.88428 | -91.72278 | 1354 ft | 81 kts | 252° |
| 2026-05-05 21:59 | 41.87892 | -91.72689 | 1462 ft | 102 kts | 188° |
| 2026-05-05 21:59 | 41.87215 | -91.72371 | 1640 ft | 112 kts | 148° |
| 2026-05-05 21:59 | 41.86688 | -91.71538 | 1757 ft | 118 kts | 126° |
| 2026-05-05 22:00 | 41.86230 | -91.70668 | 1975 ft | 111 kts | 125° |
| 2026-05-05 22:00 | 41.85803 | -91.69814 | 2104 ft | 112 kts | 121° |
| 2026-05-05 22:00 | 41.85423 | -91.68895 | 2220 ft | 110 kts | 117° |
| 2026-05-05 22:00 | 41.85071 | -91.67993 | 2311 ft | 109 kts | 116° |
| 2026-05-05 22:01 | 41.84733 | -91.67071 | 2368 ft | 111 kts | 113° |
| 2026-05-05 22:01 | 41.84421 | -91.66143 | 2526 ft | 106 kts | 112° |
| 2026-05-05 22:01 | 41.84117 | -91.65265 | 2693 ft | 105 kts | 116° |
| 2026-05-05 22:01 | 41.83780 | -91.64390 | 2765 ft | 105 kts | 118° |
| 2026-05-05 22:02 | 41.83440 | -91.63542 | 2862 ft | 103 kts | 118° |
| 2026-05-05 22:02 | 41.83091 | -91.62689 | 2901 ft | 105 kts | 118° |
| 2026-05-05 22:02 | 41.82805 | -91.61792 | 2963 ft | 105 kts | 105° |
| 2026-05-05 22:02 | 41.82555 | -91.60835 | 2966 ft | 111 kts | 107° |
| 2026-05-05 22:03 | 41.82296 | -91.59837 | 2965 ft | 115 kts | 107° |
| 2026-05-05 22:03 | 41.82035 | -91.58808 | 2960 ft | 118 kts | 107° |
| 2026-05-05 22:03 | 41.81765 | -91.57755 | 2966 ft | 120 kts | 107° |
| 2026-05-05 22:03 | 41.81493 | -91.56683 | 2962 ft | 122 kts | 107° |
| 2026-05-05 22:04 | 41.81222 | -91.55604 | 2986 ft | 124 kts | 108° |
| 2026-05-05 22:04 | 41.80930 | -91.54474 | 2956 ft | 127 kts | 106° |
| 2026-05-05 22:04 | 41.80621 | -91.53382 | 2954 ft | 124 kts | 110° |
| 2026-05-05 22:04 | 41.80306 | -91.52319 | 2957 ft | 122 kts | 110° |
| 2026-05-05 22:05 | 41.79990 | -91.51271 | 2975 ft | 122 kts | 110° |
| 2026-05-05 22:05 | 41.79670 | -91.50215 | 2991 ft | 124 kts | 111° |
| 2026-05-05 22:05 | 41.79309 | -91.49148 | 2985 ft | 126 kts | 111° |
| 2026-05-05 22:05 | 41.78952 | -91.48070 | 2986 ft | 126 kts | 113° |
| 2026-05-05 22:06 | 41.78586 | -91.46983 | 2990 ft | 131 kts | 113° |
| 2026-05-05 22:06 | 41.78221 | -91.45878 | 2987 ft | 128 kts | 113° |
| 2026-05-05 22:06 | 41.77862 | -91.44771 | 2983 ft | 131 kts | 114° |
| 2026-05-05 22:06 | 41.77504 | -91.43658 | 2982 ft | 131 kts | 113° |
| 2026-05-05 22:07 | 41.77143 | -91.42543 | 2988 ft | 130 kts | 113° |
| 2026-05-05 22:07 | 41.76785 | -91.41433 | 2983 ft | 128 kts | 112° |
| 2026-05-05 22:07 | 41.76428 | -91.40353 | 2974 ft | 125 kts | 112° |
| 2026-05-05 22:07 | 41.76063 | -91.39320 | 2974 ft | 122 kts | 113° |
| 2026-05-05 22:08 | 41.75705 | -91.38308 | 2977 ft | 119 kts | 112° |
| 2026-05-05 22:08 | 41.75359 | -91.37328 | 2987 ft | 118 kts | 112° |
| 2026-05-05 22:08 | 41.75001 | -91.36315 | 2980 ft | 120 kts | 113° |
| 2026-05-05 22:08 | 41.74649 | -91.35313 | 2982 ft | 119 kts | 112° |
| 2026-05-05 22:09 | 41.74294 | -91.34301 | 2982 ft | 122 kts | 112° |
| 2026-05-05 22:09 | 41.73925 | -91.33261 | 2987 ft | 124 kts | 112° |
| 2026-05-05 22:09 | 41.73570 | -91.32210 | 2986 ft | 124 kts | 112° |
| 2026-05-05 22:09 | 41.73209 | -91.31169 | 2986 ft | 123 kts | 112° |
| 2026-05-05 22:10 | 41.72852 | -91.30113 | 2990 ft | 128 kts | 112° |
| 2026-05-05 22:10 | 41.72466 | -91.29036 | 2999 ft | 129 kts | 111° |
| 2026-05-05 22:10 | 41.72116 | -91.27927 | 2994 ft | 129 kts | 112° |
| 2026-05-05 22:10 | 41.71743 | -91.26836 | 2987 ft | 133 kts | 114° |
| 2026-05-05 22:11 | 41.71362 | -91.25711 | 2985 ft | 132 kts | 113° |
| 2026-05-05 22:11 | 41.70993 | -91.24597 | 2975 ft | 129 kts | 111° |
| 2026-05-05 22:11 | 41.70633 | -91.23524 | 2987 ft | 126 kts | 112° |
| 2026-05-05 22:11 | 41.70273 | -91.22458 | 3000 ft | 126 kts | 111° |
| 2026-05-05 22:12 | 41.69911 | -91.21386 | 3001 ft | 126 kts | 112° |
| 2026-05-05 22:12 | 41.69551 | -91.20307 | 2992 ft | 127 kts | 112° |
| 2026-05-05 22:12 | 41.69201 | -91.19222 | 2996 ft | 125 kts | 112° |
| 2026-05-05 22:12 | 41.68843 | -91.18176 | 2988 ft | 122 kts | 112° |
| 2026-05-05 22:13 | 41.68499 | -91.17139 | 2984 ft | 122 kts | 112° |
| 2026-05-05 22:13 | 41.68166 | -91.16105 | 2983 ft | 120 kts | 111° |
| 2026-05-05 22:13 | 41.67827 | -91.15090 | 2987 ft | 120 kts | 112° |
| 2026-05-05 22:13 | 41.67492 | -91.14063 | 2997 ft | 120 kts | 112° |
| 2026-05-05 22:14 | 41.67156 | -91.13040 | 3001 ft | 120 kts | 112° |
| 2026-05-05 22:14 | 41.66819 | -91.12013 | 2993 ft | 125 kts | 112° |
| 2026-05-05 22:14 | 41.66470 | -91.10932 | 2999 ft | 129 kts | 111° |
| 2026-05-05 22:14 | 41.66110 | -91.09818 | 2993 ft | 132 kts | 111° |
| 2026-05-05 22:15 | 41.65746 | -91.08690 | 2993 ft | 131 kts | 111° |
| 2026-05-05 22:15 | 41.65384 | -91.07565 | 3005 ft | 132 kts | 112° |
| 2026-05-05 22:15 | 41.65023 | -91.06434 | 2990 ft | 132 kts | 111° |
| 2026-05-05 22:15 | 41.64670 | -91.05307 | 2988 ft | 132 kts | 111° |
| 2026-05-05 22:16 | 41.64302 | -91.04168 | 2993 ft | 136 kts | 111° |
| 2026-05-05 22:16 | 41.63936 | -91.02997 | 2987 ft | 136 kts | 111° |
| 2026-05-05 22:16 | 41.63572 | -91.01840 | 2982 ft | 133 kts | 111° |
| 2026-05-05 22:16 | 41.63215 | -91.00691 | 2985 ft | 136 kts | 111° |
| 2026-05-05 22:17 | 41.62854 | -90.99539 | 2987 ft | 134 kts | 111° |
| 2026-05-05 22:17 | 41.62497 | -90.98385 | 2985 ft | 135 kts | 111° |
| 2026-05-05 22:17 | 41.62136 | -90.97228 | 2982 ft | 133 kts | 111° |
| 2026-05-05 22:17 | 41.61781 | -90.96079 | 2986 ft | 135 kts | 111° |
| 2026-05-05 22:18 | 41.61429 | -90.94948 | 2976 ft | 131 kts | 110° |
| 2026-05-05 22:18 | 41.61075 | -90.93841 | 2977 ft | 128 kts | 111° |
| 2026-05-05 22:18 | 41.60720 | -90.92752 | 2977 ft | 128 kts | 111° |
| 2026-05-05 22:18 | 41.60363 | -90.91657 | 2979 ft | 130 kts | 111° |
| 2026-05-05 22:19 | 41.59994 | -90.90543 | 2985 ft | 132 kts | 111° |
| 2026-05-05 22:19 | 41.59627 | -90.89411 | 2982 ft | 133 kts | 111° |
| 2026-05-05 22:19 | 41.59268 | -90.88297 | 2974 ft | 129 kts | 111° |
| 2026-05-05 22:19 | 41.58910 | -90.87196 | 2975 ft | 129 kts | 111° |
| 2026-05-05 22:20 | 41.58558 | -90.86109 | 2975 ft | 127 kts | 110° |
| 2026-05-05 22:20 | 41.58208 | -90.85029 | 2974 ft | 126 kts | 110° |
| 2026-05-05 22:20 | 41.57861 | -90.83951 | 2981 ft | 127 kts | 111° |
| 2026-05-05 22:20 | 41.57510 | -90.82862 | 2977 ft | 128 kts | 110° |
| 2026-05-05 22:21 | 41.57161 | -90.81765 | 2973 ft | 128 kts | 110° |
| 2026-05-05 22:21 | 41.56817 | -90.80665 | 2971 ft | 128 kts | 110° |
| 2026-05-05 22:21 | 41.56472 | -90.79574 | 2967 ft | 127 kts | 111° |
| 2026-05-05 22:21 | 41.56137 | -90.78484 | 2971 ft | 127 kts | 111° |
| 2026-05-05 22:22 | 41.55806 | -90.77399 | 2981 ft | 129 kts | 111° |
| 2026-05-05 22:22 | 41.55457 | -90.76277 | 2976 ft | 131 kts | 109° |
| 2026-05-05 22:22 | 41.55094 | -90.75138 | 2969 ft | 133 kts | 110° |
| 2026-05-05 22:22 | 41.54742 | -90.74023 | 2971 ft | 131 kts | 110° |
| 2026-05-05 22:23 | 41.54392 | -90.72910 | 2977 ft | 131 kts | 112° |
| 2026-05-05 22:23 | 41.53886 | -90.71886 | 2980 ft | 132 kts | 129° |
| 2026-05-05 22:23 | 41.53292 | -90.70946 | 2963 ft | 131 kts | 130° |
| 2026-05-05 22:23 | 41.52668 | -90.70073 | 2966 ft | 129 kts | 141° |
| 2026-05-05 22:24 | 41.51984 | -90.69292 | 2964 ft | 130 kts | 140° |
| 2026-05-05 22:24 | 41.51334 | -90.68456 | 2966 ft | 130 kts | 130° |
| 2026-05-05 22:24 | 41.50750 | -90.67527 | 2970 ft | 130 kts | 130° |
| 2026-05-05 22:24 | 41.50163 | -90.66590 | 2972 ft | 131 kts | 130° |
| 2026-05-05 22:25 | 41.49570 | -90.65671 | 2964 ft | 131 kts | 130° |
| 2026-05-05 22:25 | 41.48977 | -90.64754 | 2967 ft | 131 kts | 130° |
| 2026-05-05 22:25 | 41.48377 | -90.63828 | 2877 ft | 136 kts | 130° |
| 2026-05-05 22:25 | 41.47741 | -90.62860 | 2715 ft | 143 kts | 131° |
| 2026-05-05 22:26 | 41.47132 | -90.61945 | 2475 ft | 123 kts | 130° |
| 2026-05-05 22:26 | 41.46571 | -90.61135 | 2202 ft | 116 kts | 134° |
| 2026-05-05 22:26 | 41.46054 | -90.60339 | 1858 ft | 112 kts | 128° |
| 2026-05-05 22:26 | 41.45522 | -90.59527 | 1511 ft | 114 kts | 120° |
| 2026-05-05 22:27 | 41.45222 | -90.58585 | 1251 ft | 108 kts | 110° |
| 2026-05-05 22:27 | 41.45020 | -90.57662 | 1073 ft | 98 kts | 101° |
| 2026-05-05 22:27 | 41.44889 | -90.56826 | 881 ft | 89 kts | 99° |
| 2026-05-05 22:27 | 41.44804 | -90.56082 | 781 ft | 71 kts | 94° |
| 2026-05-05 22:28 | 41.44857 | -90.55493 | 579 ft | 43 kts | 136° |
| 2026-05-05 22:28 | 41.44867 | -90.55426 | 579 ft | 0 kts | 257° |